Time;durP1;ratioP1;P1;durP2;ratioP2;P2;SDS_P1;SDS_P2;PMS_P1;PMS_P2;Temp;Humidity;BMP_temperature;BMP_pressure;BME280_temperature;BME280_humidity;BME280_pressure;Samples;Min_cycle;Max_cycle;Signal;HPM_P1;HPM_P2
2022/12/28 00:01:30;;;;;;;;;;;;;;;;;;4720578;28;20231;-65
2022/12/28 00:03:56;;;;;;;;;;;;;;;;;;4721249;28;20662;-65
2022/12/28 00:06:22;;;;;;;;;;;;;;;;;;4721073;28;20199;-64
2022/12/28 00:08:48;;;;;;;;;;;;;;;;;;4720420;28;20739;-64
2022/12/28 00:11:14;;;;;;;;;;;;;;;;;;4722734;28;20269;-64
2022/12/28 00:13:39;;;;;;;;;;;;;;;;;;4723891;28;20279;-64
2022/12/28 00:16:06;;;;;;;;;;;;;;;;;;4723276;28;20649;-64
2022/12/28 00:18:31;;;;;;;;;;;;;;;;;;4724229;28;20332;-65
2022/12/28 00:20:57;;;;;;;;;;;;;;;;;;4722152;28;20317;-65
2022/12/28 00:23:23;;;;;;;;;;;;;;;;;;4720828;28;20211;-63
2022/12/28 00:25:49;;;;;;;;;;;;;;;;;;4722349;28;20187;-64
2022/12/28 00:28:15;;;;;;;;;;;;;;;;;;4724448;28;20224;-64
2022/12/28 00:30:41;;;;;;;;;;;;;;;;;;4723780;28;20290;-64
2022/12/28 00:33:07;;;;;;;;;;;;;;;;;;4724311;28;20240;-65
2022/12/28 00:35:33;;;;;;;;;;;;;;;;;;4724139;28;20232;-64
2022/12/28 00:37:59;;;;;;;;;;;;;;;;;;4722630;28;20247;-64
2022/12/28 00:40:24;;;;;;;;;;;;;;;;;;4722892;28;20188;-64
2022/12/28 00:42:50;;;;;;;;;;;;;;;;;;4721073;28;20350;-64
2022/12/28 00:45:16;;;;;;;;;;;;;;;;;;4723869;28;20239;-65
2022/12/28 00:47:42;;;;;;;;;;;;;;;;;;4723161;28;20256;-64
2022/12/28 00:50:08;;;;;;;;;;;;;;;;;;4722702;28;20279;-65
2022/12/28 00:52:34;;;;;;;;;;;;;;;;;;4722402;28;20193;-64
2022/12/28 00:55:00;;;;;;;;;;;;;;;;;;4722931;28;20246;-64
2022/12/28 00:57:26;;;;;;;;;;;;;;;;;;4722320;28;20310;-65
2022/12/28 00:59:52;;;;;;;;;;;;;;;;;;4721253;28;20222;-65
2022/12/28 01:02:17;;;;;;;;;;;;;;;;;;4719719;28;20244;-64
2022/12/28 01:04:43;;;;;;;;;;;;;;;;;;4720202;28;20209;-64
2022/12/28 01:07:10;;;;;;;;;;;;;;;;;;4719441;28;20196;-64
2022/12/28 01:09:36;;;;;;;;;;;;;;;;;;4719945;28;20241;-65
2022/12/28 01:12:02;;;;;;;;;;;;;;;;;;4720458;28;20270;-64
2022/12/28 01:14:28;;;;;;;;;;;;;;;;;;4721439;28;20203;-64
2022/12/28 01:16:54;;;;;;;;;;;;;;;;;;4722299;28;20791;-63
2022/12/28 01:19:19;;;;;;;;;;;;;;;;;;4715829;28;20315;-64
2022/12/28 01:21:45;;;;;;;;;;;;;;;;;;4722576;28;20229;-63
2022/12/28 01:24:11;;;;;;;;;;;;;;;;;;4722744;28;20633;-64
2022/12/28 01:26:37;;;;;;;;;;;;;;;;;;4720279;28;20302;-63
2022/12/28 01:29:03;;;;;;;;;;;;;;;;;;4721298;28;20737;-63
2022/12/28 01:31:29;;;;;;;;;;;;;;;;;;4722753;28;20285;-64
2022/12/28 01:33:55;;;;;;;;;;;;;;;;;;4722361;28;20196;-63
2022/12/28 01:36:21;;;;;;;;;;;;;;;;;;4722314;28;20705;-64
2022/12/28 01:38:47;;;;;;;;;;;;;;;;;;4720918;28;20263;-64
2022/12/28 01:41:13;;;;;;;;;;;;;;;;;;4721400;28;20280;-64
2022/12/28 01:43:38;;;;;;;;;;;;;;;;;;4722694;28;20263;-63
2022/12/28 01:46:05;;;;;;;;;;;;;;;;;;4721139;28;20226;-62
2022/12/28 01:48:31;;;;;;;;;;;;;;;;;;4714676;28;20226;-62
2022/12/28 01:50:56;;;;;;;;;;;;;;;;;;4721858;28;20239;-63
2022/12/28 01:53:22;;;;;;;;;;;;;;;;;;4721373;28;20224;-63
2022/12/28 01:55:48;;;;;;;;;;;;;;;;;;4721223;28;20308;-64
2022/12/28 01:58:14;;;;;;;;;;;;;;;;;;4721723;28;20212;-63
2022/12/28 02:00:40;;;;;;;;;;;;;;;;;;4721220;28;20278;-63
2022/12/28 02:03:06;;;;;;;;;;;;;;;;;;4718429;28;20225;-63
2022/12/28 02:05:32;;;;;;;;;;;;;;;;;;4716402;28;20216;-63
2022/12/28 02:07:58;;;;;;;;;;;;;;;;;;4716164;28;20333;-63
2022/12/28 02:10:24;;;;;;;;;;;;;;;;;;4717005;28;20189;-64
2022/12/28 02:12:49;;;;;;;;;;;;;;;;;;4716791;28;20231;-64
2022/12/28 02:15:15;;;;;;;;;;;;;;;;;;4717214;28;20383;-63
2022/12/28 02:17:41;;;;;;;;;;;;;;;;;;4716400;28;20217;-63
2022/12/28 02:20:07;;;;;;;;;;;;;;;;;;4717158;28;20199;-63
2022/12/28 02:22:33;;;;;;;;;;;;;;;;;;4717498;28;20185;-64
2022/12/28 02:24:59;;;;;;;;;;;;;;;;;;4717082;28;20279;-64
2022/12/28 02:27:25;;;;;;;;;;;;;;;;;;4716650;28;20194;-64
2022/12/28 02:29:51;;;;;;;;;;;;;;;;;;4717132;28;20215;-63
2022/12/28 02:32:17;;;;;;;;;;;;;;;;;;4716097;28;20244;-63
2022/12/28 02:34:42;;;;;;;;;;;;;;;;;;4716537;28;20216;-63
2022/12/28 02:37:09;;;;;;;;;;;;;;;;;;4716690;28;20368;-63
2022/12/28 02:39:34;;;;;;;;;;;;;;;;;;4715746;28;20183;-64
2022/12/28 02:42:00;;;;;;;;;;;;;;;;;;4716124;28;20194;-63
2022/12/28 02:50:05;;;;;;;;;;;;;;;;;;4715270;28;20304;-63
2022/12/28 02:52:31;;;;;;;;;;;;;;;;;;4716406;28;20218;-64
2022/12/28 02:57:41;;;;;;;;;;;;;;;;;;4714993;28;20248;-63
2022/12/28 03:00:07;;;;;;;;;;;;;;;;;;4713772;28;20188;-63
2022/12/28 03:02:33;;;;;;;;;;;;;;;;;;4713056;28;20205;-63
2022/12/28 03:04:59;;;;;;;;;;;;;;;;;;4714330;28;20720;-64
2022/12/28 03:10:10;;;;;;;;;;;;;;;;;;4717430;28;20285;-63
2022/12/28 03:12:35;;;;;;;;;;;;;;;;;;4718227;28;21202;-63
2022/12/28 03:15:10;;;;;;;;;;;;;;;;;;4719215;28;20239;-63
2022/12/28 03:31:20;;;;;;;;;;;;;;;;;;4714892;28;20368;-63
2022/12/28 03:33:46;;;;;;;;;;;;;;;;;;4713143;28;20224;-64
2022/12/28 03:36:12;;;;;;;;;;;;;;;;;;4714497;28;20233;-63
2022/12/28 03:38:38;;;;;;;;;;;;;;;;;;4715157;28;20315;-64
2022/12/28 03:41:04;;;;;;;;;;;;;;;;;;4713387;28;20247;-64
2022/12/28 03:43:39;;;;;;;;;;;;;;;;;;4713118;28;20222;-63
2022/12/28 03:46:05;;;;;;;;;;;;;;;;;;4714258;28;20344;-63
2022/12/28 03:48:31;;;;;;;;;;;;;;;;;;4714621;28;20299;-63
2022/12/28 03:50:57;;;;;;;;;;;;;;;;;;4715127;28;20202;-64
2022/12/28 03:53:23;;;;;;;;;;;;;;;;;;4714522;28;20189;-61
2022/12/28 03:55:49;;;;;;;;;;;;;;;;;;4707841;28;20234;-64
2022/12/28 03:58:15;;;;;;;;;;;;;;;;;;4717035;28;20626;-61
2022/12/28 04:00:40;;;;;;;;;;;;;;;;;;4716294;28;20332;-63
2022/12/28 04:03:06;;;;;;;;;;;;;;;;;;4713256;28;20586;-63
2022/12/28 04:05:32;;;;;;;;;;;;;;;;;;4713678;28;20194;-63
2022/12/28 04:07:58;;;;;;;;;;;;;;;;;;4713750;28;20259;-64
2022/12/28 04:10:24;;;;;;;;;;;;;;;;;;4716394;28;20193;-63
2022/12/28 04:12:50;;;;;;;;;;;;;;;;;;4716825;28;20230;-63
2022/12/28 04:15:16;;;;;;;;;;;;;;;;;;4714586;28;20262;-63
2022/12/28 04:17:42;;;;;;;;;;;;;;;;;;4715143;28;20379;-64
2022/12/28 04:20:08;;;;;;;;;;;;;;;;;;4717550;28;20257;-64
2022/12/28 04:22:34;;;;;;;;;;;;;;;;;;4715744;28;20728;-63
2022/12/28 04:24:59;;;;;;;;;;;;;;;;;;4715015;28;20195;-64
2022/12/28 04:27:25;;;;;;;;;;;;;;;;;;4716292;28;20776;-64
2022/12/28 04:29:51;;;;;;;;;;;;;;;;;;4716442;28;20295;-63
2022/12/28 04:32:17;;;;;;;;;;;;;;;;;;4713694;28;20645;-64
2022/12/28 04:34:43;;;;;;;;;;;;;;;;;;4713175;28;20223;-64
2022/12/28 04:37:09;;;;;;;;;;;;;;;;;;4714084;28;20223;-62
2022/12/28 04:39:35;;;;;;;;;;;;;;;;;;4715043;28;20191;-63
2022/12/28 04:42:01;;;;;;;;;;;;;;;;;;4713258;28;20241;-63
2022/12/28 04:44:26;;;;;;;;;;;;;;;;;;4712875;28;20301;-63
2022/12/28 04:46:52;;;;;;;;;;;;;;;;;;4713677;28;20220;-63
2022/12/28 04:49:18;;;;;;;;;;;;;;;;;;4714817;28;20235;-64
2022/12/28 04:51:44;;;;;;;;;;;;;;;;;;4713433;28;20194;-64
2022/12/28 04:54:10;;;;;;;;;;;;;;;;;;4715202;28;20714;-63
2022/12/28 04:56:36;;;;;;;;;;;;;;;;;;4714066;28;20192;-63
2022/12/28 04:59:02;;;;;;;;;;;;;;;;;;4716051;28;20637;-64
2022/12/28 05:01:28;;;;;;;;;;;;;;;;;;4713346;28;20231;-64
2022/12/28 05:03:54;;;;;;;;;;;;;;;;;;4713569;28;20200;-64
2022/12/28 05:06:20;;;;;;;;;;;;;;;;;;4717686;28;20224;-65
2022/12/28 05:08:46;;;;;;;;;;;;;;;;;;4720639;28;20217;-64
2022/12/28 05:11:12;;;;;;;;;;;;;;;;;;4718281;28;20200;-64
2022/12/28 05:13:38;;;;;;;;;;;;;;;;;;4719503;28;20211;-63
2022/12/28 05:16:04;;;;;;;;;;;;;;;;;;4717747;28;20332;-63
2022/12/28 05:18:30;;;;;;;;;;;;;;;;;;4716842;28;20244;-63
2022/12/28 05:20:55;;;;;;;;;;;;;;;;;;4717856;28;20194;-64
2022/12/28 05:23:21;;;;;;;;;;;;;;;;;;4716593;28;20299;-64
2022/12/28 05:25:47;;;;;;;;;;;;;;;;;;4716851;28;20229;-63
2022/12/28 05:28:13;;;;;;;;;;;;;;;;;;4715371;28;20566;-64
2022/12/28 05:30:39;;;;;;;;;;;;;;;;;;4717204;28;20220;-62
2022/12/28 05:33:05;;;;;;;;;;;;;;;;;;4716270;28;20810;-63
2022/12/28 05:35:31;;;;;;;;;;;;;;;;;;4716913;28;20327;-63
2022/12/28 05:37:57;;;;;;;;;;;;;;;;;;4716410;28;20745;-63
2022/12/28 05:40:22;;;;;;;;;;;;;;;;;;4714929;28;20232;-62
2022/12/28 05:42:48;;;;;;;;;;;;;;;;;;4715960;28;20882;-63
2022/12/28 05:45:14;;;;;;;;;;;;;;;;;;4715230;28;20227;-62
2022/12/28 05:47:40;;;;;;;;;;;;;;;;;;4713932;28;20341;-63
2022/12/28 05:50:06;;;;;;;;;;;;;;;;;;4714605;28;20242;-62
2022/12/28 05:52:32;;;;;;;;;;;;;;;;;;4715426;28;20965;-63
2022/12/28 05:54:58;;;;;;;;;;;;;;;;;;4714649;28;20635;-62
2022/12/28 05:57:24;;;;;;;;;;;;;;;;;;4715340;28;20215;-62
2022/12/28 05:59:50;;;;;;;;;;;;;;;;;;4715579;28;20298;-62
2022/12/28 06:02:16;;;;;;;;;;;;;;;;;;4714957;28;20323;-63
2022/12/28 06:04:41;;;;;;;;;;;;;;;;;;4715681;28;20246;-63
2022/12/28 06:07:07;;;;;;;;;;;;;;;;;;4714782;28;20334;-63
2022/12/28 06:09:33;;;;;;;;;;;;;;;;;;4713904;28;20841;-63
2022/12/28 06:11:59;;;;;;;;;;;;;;;;;;4715274;28;20280;-62
2022/12/28 06:14:25;;;;;;;;;;;;;;;;;;4714480;28;20269;-63
2022/12/28 06:16:51;;;;;;;;;;;;;;;;;;4714201;28;20227;-63
2022/12/28 06:19:17;;;;;;;;;;;;;;;;;;4713031;28;20263;-63
2022/12/28 06:21:43;;;;;;;;;;;;;;;;;;4712538;28;20248;-63
2022/12/28 06:24:09;;;;;;;;;;;;;;;;;;4711224;28;20191;-63
2022/12/28 06:26:35;;;;;;;;;;;;;;;;;;4712262;28;20198;-63
2022/12/28 06:29:01;;;;;;;;;;;;;;;;;;4709335;28;20222;-62
2022/12/28 06:31:26;;;;;;;;;;;;;;;;;;4707859;28;20227;-62
2022/12/28 06:33:52;;;;;;;;;;;;;;;;;;4708411;28;20236;-62
2022/12/28 06:36:18;;;;;;;;;;;;;;;;;;4708612;28;20293;-62
2022/12/28 06:38:44;;;;;;;;;;;;;;;;;;4706629;28;21161;-62
2022/12/28 06:41:10;;;;;;;;;;;;;;;;;;4706396;28;20210;-63
2022/12/28 06:43:36;;;;;;;;;;;;;;;;;;4710122;28;20344;-63
2022/12/28 06:46:02;;;;;;;;;;;;;;;;;;4708671;28;20247;-62
2022/12/28 06:48:28;;;;;;;;;;;;;;;;;;4708804;28;20241;-63
2022/12/28 06:50:54;;;;;;;;;;;;;;;;;;4708779;28;21048;-62
2022/12/28 06:53:20;;;;;;;;;;;;;;;;;;4708023;28;20734;-62
2022/12/28 06:55:46;;;;;;;;;;;;;;;;;;4714356;28;20220;-63
2022/12/28 06:58:12;;;;;;;;;;;;;;;;;;4715750;28;20648;-63
2022/12/28 07:00:38;;;;;;;;;;;;;;;;;;4716526;28;20226;-63
2022/12/28 07:03:03;;;;;;;;;;;;;;;;;;4718006;28;20649;-63
2022/12/28 07:05:29;;;;;;;;;;;;;;;;;;4717831;28;20238;-63
2022/12/28 07:07:55;;;;;;;;;;;;;;;;;;4715030;28;21076;-63
2022/12/28 07:10:21;;;;;;;;;;;;;;;;;;4709942;28;20210;-62
2022/12/28 07:12:47;;;;;;;;;;;;;;;;;;4714281;28;20825;-63
2022/12/28 07:15:13;;;;;;;;;;;;;;;;;;4713176;28;20242;-63
2022/12/28 07:17:39;;;;;;;;;;;;;;;;;;4714824;28;20219;-62
2022/12/28 07:20:05;;;;;;;;;;;;;;;;;;4714557;28;20361;-63
2022/12/28 07:22:30;;;;;;;;;;;;;;;;;;4714243;28;20751;-62
2022/12/28 07:24:56;;;;;;;;;;;;;;;;;;4715447;28;20233;-62
2022/12/28 07:27:22;;;;;;;;;;;;;;;;;;4714222;28;20271;-62
2022/12/28 07:29:48;;;;;;;;;;;;;;;;;;4713541;28;20236;-63
2022/12/28 07:32:14;;;;;;;;;;;;;;;;;;4713052;28;20241;-63
2022/12/28 07:34:40;;;;;;;;;;;;;;;;;;4712707;28;20204;-62
2022/12/28 07:37:06;;;;;;;;;;;;;;;;;;4712874;28;20243;-62
2022/12/28 07:39:32;;;;;;;;;;;;;;;;;;4708442;28;20212;-64
2022/12/28 07:41:57;;;;;;;;;;;;;;;;;;4711595;28;20223;-58
2022/12/28 07:44:23;;;;;;;;;;;;;;;;;;4712506;28;20643;-58
2022/12/28 07:46:49;;;;;;;;;;;;;;;;;;4714863;28;20219;-62
2022/12/28 07:49:15;;;;;;;;;;;;;;;;;;4706526;28;21044;-63
2022/12/28 07:51:41;;;;;;;;;;;;;;;;;;4716482;28;20654;-63
2022/12/28 07:54:07;;;;;;;;;;;;;;;;;;4717726;28;20633;-62
2022/12/28 07:56:33;;;;;;;;;;;;;;;;;;4720393;28;20196;-62
2022/12/28 07:58:59;;;;;;;;;;;;;;;;;;4720254;28;20214;-62
2022/12/28 08:01:25;;;;;;;;;;;;;;;;;;4717675;28;20255;-64
2022/12/28 08:03:51;;;;;;;;;;;;;;;;;;4713943;28;20572;-62
2022/12/28 08:06:21;;;;;;;;;;;;;;;;;;4713910;28;20232;-61
2022/12/28 08:08:47;;;;;;;;;;;;;;;;;;4705250;28;20684;-62
2022/12/28 08:11:13;;;;;;;;;;;;;;;;;;4714477;28;20268;-62
2022/12/28 08:13:39;;;;;;;;;;;;;;;;;;4719472;28;20225;-63
2022/12/28 08:16:05;;;;;;;;;;;;;;;;;;4717253;28;20196;-61
2022/12/28 08:18:31;;;;;;;;;;;;;;;;;;4714131;28;20240;-60
2022/12/28 08:20:57;;;;;;;;;;;;;;;;;;4715307;28;20496;-62
2022/12/28 08:23:22;;;;;;;;;;;;;;;;;;4712448;28;20319;-60
2022/12/28 08:25:48;;;;;;;;;;;;;;;;;;4714752;28;20204;-63
2022/12/28 08:28:14;;;;;;;;;;;;;;;;;;4714875;28;20229;-62
2022/12/28 08:30:40;;;;;;;;;;;;;;;;;;4714733;28;20258;-63
2022/12/28 08:33:06;;;;;;;;;;;;;;;;;;4711709;28;20773;-62
2022/12/28 08:35:32;;;;;;;;;;;;;;;;;;4711238;28;20193;-63
2022/12/28 08:37:58;;;;;;;;;;;;;;;;;;4715205;28;20225;-62
2022/12/28 08:40:28;;;;;;;;;;;;;;;;;;4714677;28;20225;-62
2022/12/28 08:42:54;;;;;;;;;;;;;;;;;;4713152;28;20258;-62
2022/12/28 08:45:20;;;;;;;;;;;;;;;;;;4713341;28;20220;-62
2022/12/28 08:47:46;;;;;;;;;;;;;;;;;;4714751;28;20250;-62
2022/12/28 08:50:12;;;;;;;;;;;;;;;;;;4714783;28;20732;-62
2022/12/28 08:52:37;;;;;;;;;;;;;;;;;;4713490;28;20278;-62
2022/12/28 08:55:03;;;;;;;;;;;;;;;;;;4708882;28;20643;-63
2022/12/28 08:57:29;;;;;;;;;;;;;;;;;;4711587;28;20235;-63
2022/12/28 08:59:55;;;;;;;;;;;;;;;;;;4707765;28;20679;-62
2022/12/28 09:02:21;;;;;;;;;;;;;;;;;;4708036;28;20219;-63
2022/12/28 09:04:47;;;;;;;;;;;;;;;;;;4710608;28;20238;-63
2022/12/28 09:07:13;;;;;;;;;;;;;;;;;;4711980;28;20196;-62
2022/12/28 09:09:39;;;;;;;;;;;;;;;;;;4717926;28;20227;-63
2022/12/28 09:12:06;;;;;;;;;;;;;;;;;;4719675;28;20235;-61
2022/12/28 09:14:32;;;;;;;;;;;;;;;;;;4720118;28;20555;-63
2022/12/28 09:16:57;;;;;;;;;;;;;;;;;;4720654;28;20261;-63
2022/12/28 09:19:23;;;;;;;;;;;;;;;;;;4719337;28;20243;-61
2022/12/28 09:21:51;;;;;;;;;;;;;;;;;;4714759;28;20326;-61
2022/12/28 09:24:17;;;;;;;;;;;;;;;;;;4713603;28;20192;-62
2022/12/28 09:26:43;;;;;;;;;;;;;;;;;;4713349;28;20203;-62
2022/12/28 09:29:09;;;;;;;;;;;;;;;;;;4710628;28;20865;-62
2022/12/28 09:31:35;;;;;;;;;;;;;;;;;;4709234;28;20683;-63
2022/12/28 09:34:01;;;;;;;;;;;;;;;;;;4708565;28;20228;-63
2022/12/28 09:36:28;;;;;;;;;;;;;;;;;;4710607;28;20743;-62
2022/12/28 09:38:54;;;;;;;;;;;;;;;;;;4712905;28;20225;-60
2022/12/28 09:41:20;;;;;;;;;;;;;;;;;;4711276;28;20248;-63
2022/12/28 09:43:45;;;;;;;;;;;;;;;;;;4712355;28;20244;-62
2022/12/28 09:46:11;;;;;;;;;;;;;;;;;;4711427;28;20744;-63
2022/12/28 09:48:37;;;;;;;;;;;;;;;;;;4714883;28;20256;-62
2022/12/28 09:51:03;;;;;;;;;;;;;;;;;;4709172;28;20280;-63
2022/12/28 09:53:29;;;;;;;;;;;;;;;;;;4709611;28;20640;-62
2022/12/28 09:55:55;;;;;;;;;;;;;;;;;;4707378;28;20201;-62
2022/12/28 09:58:21;;;;;;;;;;;;;;;;;;4709692;28;20299;-63
2022/12/28 10:00:47;;;;;;;;;;;;;;;;;;4711121;28;20248;-62
2022/12/28 10:03:13;;;;;;;;;;;;;;;;;;4710584;28;20201;-63
2022/12/28 10:05:38;;;;;;;;;;;;;;;;;;4708313;28;20255;-63
2022/12/28 10:08:04;;;;;;;;;;;;;;;;;;4709566;28;20307;-62
2022/12/28 10:10:30;;;;;;;;;;;;;;;;;;4709754;28;20282;-64
2022/12/28 10:12:56;;;;;;;;;;;;;;;;;;4708773;28;20354;-64
2022/12/28 10:15:22;;;;;;;;;;;;;;;;;;4707003;28;20659;-64
2022/12/28 10:17:48;;;;;;;;;;;;;;;;;;4712686;28;20209;-61
2022/12/28 10:20:14;;;;;;;;;;;;;;;;;;4712135;28;20268;-62
2022/12/28 10:22:40;;;;;;;;;;;;;;;;;;4712403;28;20193;-64
2022/12/28 10:25:06;;;;;;;;;;;;;;;;;;4713130;28;20684;-63
2022/12/28 10:27:32;;;;;;;;;;;;;;;;;;4712558;28;20229;-62
2022/12/28 10:29:58;;;;;;;;;;;;;;;;;;4709817;28;20289;-63
2022/12/28 10:32:24;;;;;;;;;;;;;;;;;;4712093;28;20343;-64
2022/12/28 10:34:50;;;;;;;;;;;;;;;;;;4714203;28;20638;-63
2022/12/28 10:37:16;;;;;;;;;;;;;;;;;;4713509;28;20201;-64
2022/12/28 10:39:42;;;;;;;;;;;;;;;;;;4712528;28;20808;-64
2022/12/28 10:42:08;;;;;;;;;;;;;;;;;;4712017;28;20326;-64
2022/12/28 10:44:33;;;;;;;;;;;;;;;;;;4711286;28;20196;-64
2022/12/28 10:46:59;;;;;;;;;;;;;;;;;;4711726;28;20212;-64
2022/12/28 10:49:25;;;;;;;;;;;;;;;;;;4708286;28;20241;-64
2022/12/28 10:51:51;;;;;;;;;;;;;;;;;;4710767;28;20299;-64
2022/12/28 10:54:17;;;;;;;;;;;;;;;;;;4706388;28;20246;-62
2022/12/28 10:56:43;;;;;;;;;;;;;;;;;;4708040;28;20666;-63
2022/12/28 10:59:09;;;;;;;;;;;;;;;;;;4705056;28;20209;-62
2022/12/28 11:01:35;;;;;;;;;;;;;;;;;;4706319;28;20571;-64
2022/12/28 11:04:01;;;;;;;;;;;;;;;;;;4708981;28;20252;-63
2022/12/28 11:06:27;;;;;;;;;;;;;;;;;;4709770;28;20204;-64
2022/12/28 11:08:53;;;;;;;;;;;;;;;;;;4705933;28;20295;-64
2022/12/28 11:11:18;;;;;;;;;;;;;;;;;;4702455;28;20202;-64
2022/12/28 11:13:44;;;;;;;;;;;;;;;;;;4709496;28;20338;-64
2022/12/28 11:16:11;;;;;;;;;;;;;;;;;;4711437;28;20221;-64
2022/12/28 11:18:37;;;;;;;;;;;;;;;;;;4712159;28;20761;-64
2022/12/28 11:21:03;;;;;;;;;;;;;;;;;;4709000;28;20246;-63
2022/12/28 11:23:30;;;;;;;;;;;;;;;;;;4707411;28;20248;-64
2022/12/28 11:25:56;;;;;;;;;;;;;;;;;;4707912;28;20316;-64
2022/12/28 11:28:22;;;;;;;;;;;;;;;;;;4708204;28;20868;-64
2022/12/28 11:30:48;;;;;;;;;;;;;;;;;;4709229;28;20249;-64
2022/12/28 11:33:14;;;;;;;;;;;;;;;;;;4706544;28;20266;-63
2022/12/28 11:35:40;;;;;;;;;;;;;;;;;;4707526;28;20198;-64
2022/12/28 11:38:05;;;;;;;;;;;;;;;;;;4708252;28;20265;-63
2022/12/28 11:40:31;;;;;;;;;;;;;;;;;;4708696;28;20261;-64
2022/12/28 11:42:57;;;;;;;;;;;;;;;;;;4708211;28;20798;-62
2022/12/28 11:45:23;;;;;;;;;;;;;;;;;;4707235;28;20244;-63
2022/12/28 11:47:49;;;;;;;;;;;;;;;;;;4704732;28;20700;-62
2022/12/28 11:50:15;;;;;;;;;;;;;;;;;;4709256;28;20206;-62
2022/12/28 11:52:41;;;;;;;;;;;;;;;;;;4711311;28;20237;-63
2022/12/28 11:55:07;;;;;;;;;;;;;;;;;;4709189;28;20250;-63
2022/12/28 11:57:33;;;;;;;;;;;;;;;;;;4707517;28;20225;-63
2022/12/28 11:59:59;;;;;;;;;;;;;;;;;;4708688;28;20324;-62
2022/12/28 12:02:25;;;;;;;;;;;;;;;;;;4708570;28;20295;-62
2022/12/28 12:04:51;;;;;;;;;;;;;;;;;;4707025;28;20246;-64
2022/12/28 12:07:17;;;;;;;;;;;;;;;;;;4703149;28;20717;-62
2022/12/28 12:09:42;;;;;;;;;;;;;;;;;;4700036;28;20267;-62
2022/12/28 12:12:08;;;;;;;;;;;;;;;;;;4700844;28;20284;-63
2022/12/28 12:14:34;;;;;;;;;;;;;;;;;;4700962;28;20841;-64
2022/12/28 12:17:02;;;;;;;;;;;;;;;;;;4700816;28;20337;-64
2022/12/28 12:19:28;;;;;;;;;;;;;;;;;;4703157;28;20248;-65
2022/12/28 12:21:53;;;;;;;;;;;;;;;;;;4707689;28;20288;-65
2022/12/28 12:24:19;;;;;;;;;;;;;;;;;;4709503;28;20311;-64
2022/12/28 12:26:45;;;;;;;;;;;;;;;;;;4705039;28;20262;-63
2022/12/28 12:29:11;;;;;;;;;;;;;;;;;;4708337;28;20256;-64
2022/12/28 12:31:37;;;;;;;;;;;;;;;;;;4707293;28;20213;-65
2022/12/28 12:34:03;;;;;;;;;;;;;;;;;;4707276;28;20220;-61
2022/12/28 12:36:29;;;;;;;;;;;;;;;;;;4709231;28;20361;-64
2022/12/28 12:38:55;;;;;;;;;;;;;;;;;;4710616;28;20237;-64
2022/12/28 12:41:21;;;;;;;;;;;;;;;;;;4712436;28;20229;-63
2022/12/28 12:43:47;;;;;;;;;;;;;;;;;;4712289;28;20253;-63
2022/12/28 12:46:13;;;;;;;;;;;;;;;;;;4711212;28;20281;-63
2022/12/28 12:48:39;;;;;;;;;;;;;;;;;;4708813;28;20220;-64
2022/12/28 12:51:05;;;;;;;;;;;;;;;;;;4710299;28;20222;-65
2022/12/28 12:53:31;;;;;;;;;;;;;;;;;;4702947;28;20240;-64
2022/12/28 12:55:56;;;;;;;;;;;;;;;;;;4706763;28;20226;-64
2022/12/28 12:58:22;;;;;;;;;;;;;;;;;;4711401;28;20267;-65
2022/12/28 13:00:48;;;;;;;;;;;;;;;;;;4709637;28;20241;-65
2022/12/28 13:03:14;;;;;;;;;;;;;;;;;;4709110;28;20326;-64
2022/12/28 13:05:40;;;;;;;;;;;;;;;;;;4709722;28;20980;-65
2022/12/28 13:08:06;;;;;;;;;;;;;;;;;;4704050;28;20272;-64
2022/12/28 13:10:32;;;;;;;;;;;;;;;;;;4703656;28;20266;-65
2022/12/28 13:12:58;;;;;;;;;;;;;;;;;;4704723;28;20242;-63
2022/12/28 13:15:24;;;;;;;;;;;;;;;;;;4707278;28;20218;-64
2022/12/28 13:17:50;;;;;;;;;;;;;;;;;;4712936;28;20208;-64
2022/12/28 13:20:16;;;;;;;;;;;;;;;;;;4712311;28;20352;-65
2022/12/28 13:22:42;;;;;;;;;;;;;;;;;;4710378;28;20274;-65
2022/12/28 13:25:07;;;;;;;;;;;;;;;;;;4711446;28;20672;-64
2022/12/28 13:27:34;;;;;;;;;;;;;;;;;;4710605;28;20248;-66
2022/12/28 13:29:59;;;;;;;;;;;;;;;;;;4711337;28;20204;-66
2022/12/28 13:32:25;;;;;;;;;;;;;;;;;;4706476;28;20209;-64
2022/12/28 13:34:51;;;;;;;;;;;;;;;;;;4705611;28;20202;-64
2022/12/28 13:37:17;;;;;;;;;;;;;;;;;;4703458;28;20243;-64
2022/12/28 13:39:43;;;;;;;;;;;;;;;;;;4705828;28;20213;-65
2022/12/28 13:42:09;;;;;;;;;;;;;;;;;;4707058;28;20245;-65
2022/12/28 13:44:35;;;;;;;;;;;;;;;;;;4703748;28;20251;-64
2022/12/28 13:47:01;;;;;;;;;;;;;;;;;;4707189;28;20261;-65
2022/12/28 13:49:27;;;;;;;;;;;;;;;;;;4704468;28;20354;-65
2022/12/28 13:51:53;;;;;;;;;;;;;;;;;;4703591;28;20225;-65
2022/12/28 13:54:19;;;;;;;;;;;;;;;;;;4701757;28;20243;-64
2022/12/28 13:56:45;;;;;;;;;;;;;;;;;;4708069;28;20235;-64
2022/12/28 13:59:11;;;;;;;;;;;;;;;;;;4707860;28;20287;-65
2022/12/28 14:01:36;;;;;;;;;;;;;;;;;;4708973;28;20666;-65
2022/12/28 14:04:02;;;;;;;;;;;;;;;;;;4710383;28;20244;-64
2022/12/28 14:06:28;;;;;;;;;;;;;;;;;;4709955;28;20228;-65
2022/12/28 14:08:54;;;;;;;;;;;;;;;;;;4707615;28;20258;-64
2022/12/28 14:11:20;;;;;;;;;;;;;;;;;;4707898;28;20326;-64
2022/12/28 14:13:46;;;;;;;;;;;;;;;;;;4702662;28;20213;-65
2022/12/28 14:16:12;;;;;;;;;;;;;;;;;;4704443;28;20191;-64
2022/12/28 14:18:38;;;;;;;;;;;;;;;;;;4706798;28;20228;-64
2022/12/28 14:21:05;;;;;;;;;;;;;;;;;;4702971;28;20644;-64
2022/12/28 14:23:31;;;;;;;;;;;;;;;;;;4704062;28;20751;-63
2022/12/28 14:25:56;;;;;;;;;;;;;;;;;;4705029;28;20257;-64
2022/12/28 14:28:22;;;;;;;;;;;;;;;;;;4703605;28;20293;-64
2022/12/28 14:30:48;;;;;;;;;;;;;;;;;;4706823;28;20254;-64
2022/12/28 14:33:14;;;;;;;;;;;;;;;;;;4711361;28;20238;-64
2022/12/28 14:35:40;;;;;;;;;;;;;;;;;;4707926;28;20326;-65
2022/12/28 14:38:06;;;;;;;;;;;;;;;;;;4708836;28;20200;-65
2022/12/28 14:40:32;;;;;;;;;;;;;;;;;;4710256;28;20193;-64
2022/12/28 14:42:58;;;;;;;;;;;;;;;;;;4708544;28;20845;-64
2022/12/28 14:45:24;;;;;;;;;;;;;;;;;;4708453;28;20270;-62
2022/12/28 14:47:49;;;;;;;;;;;;;;;;;;4708877;28;20215;-64
2022/12/28 14:50:16;;;;;;;;;;;;;;;;;;4707108;28;20655;-63
2022/12/28 14:52:42;;;;;;;;;;;;;;;;;;4708945;28;20199;-65
2022/12/28 14:55:08;;;;;;;;;;;;;;;;;;4710014;28;20195;-65
2022/12/28 14:57:34;;;;;;;;;;;;;;;;;;4710011;28;21076;-64
2022/12/28 15:00:00;;;;;;;;;;;;;;;;;;4706047;28;20242;-64
2022/12/28 15:02:26;;;;;;;;;;;;;;;;;;4706453;28;20234;-60
2022/12/28 15:04:52;;;;;;;;;;;;;;;;;;4702632;28;20608;-65
2022/12/28 15:07:18;;;;;;;;;;;;;;;;;;4705026;28;20225;-66
2022/12/28 15:09:44;;;;;;;;;;;;;;;;;;4701201;28;20305;-63
2022/12/28 15:12:09;;;;;;;;;;;;;;;;;;4702129;28;20259;-65
2022/12/28 15:14:35;;;;;;;;;;;;;;;;;;4702278;28;20348;-63
2022/12/28 15:17:01;;;;;;;;;;;;;;;;;;4704040;28;20773;-65
2022/12/28 15:19:29;;;;;;;;;;;;;;;;;;4705556;28;20785;-64
2022/12/28 15:21:55;;;;;;;;;;;;;;;;;;4704200;28;20932;-63
2022/12/28 15:24:21;;;;;;;;;;;;;;;;;;4707894;28;20233;-64
2022/12/28 15:26:47;;;;;;;;;;;;;;;;;;4707066;28;20354;-64
2022/12/28 15:29:13;;;;;;;;;;;;;;;;;;4708800;28;20587;-65
2022/12/28 15:31:38;;;;;;;;;;;;;;;;;;4709922;28;20200;-64
2022/12/28 15:34:04;;;;;;;;;;;;;;;;;;4708121;28;21002;-65
2022/12/28 15:36:30;;;;;;;;;;;;;;;;;;4709067;28;20252;-65
2022/12/28 15:38:56;;;;;;;;;;;;;;;;;;4708980;28;20236;-65
2022/12/28 15:44:06;;;;;;;;;;;;;;;;;;4707909;28;20243;-65
2022/12/28 15:46:32;;;;;;;;;;;;;;;;;;4704969;28;20233;-66
2022/12/28 15:48:58;;;;;;;;;;;;;;;;;;4707397;28;20247;-65
2022/12/28 15:51:24;;;;;;;;;;;;;;;;;;4704500;28;20236;-65
2022/12/28 15:53:50;;;;;;;;;;;;;;;;;;4703541;28;20308;-64
2022/12/28 15:56:16;;;;;;;;;;;;;;;;;;4709355;28;20231;-65
2022/12/28 15:58:42;;;;;;;;;;;;;;;;;;4709200;28;20254;-66
2022/12/28 16:01:08;;;;;;;;;;;;;;;;;;4708791;28;20242;-64
2022/12/28 16:03:33;;;;;;;;;;;;;;;;;;4707229;28;20229;-65
2022/12/28 16:05:59;;;;;;;;;;;;;;;;;;4709869;28;20249;-63
2022/12/28 16:08:25;;;;;;;;;;;;;;;;;;4708455;28;20365;-66
2022/12/28 16:10:51;;;;;;;;;;;;;;;;;;4706151;28;20299;-66
2022/12/28 16:13:17;;;;;;;;;;;;;;;;;;4700274;28;20302;-66
2022/12/28 16:15:43;;;;;;;;;;;;;;;;;;4701968;28;21876;-66
2022/12/28 16:18:09;;;;;;;;;;;;;;;;;;4704399;28;20234;-66
2022/12/28 16:20:35;;;;;;;;;;;;;;;;;;4704281;28;20689;-65
2022/12/28 16:23:01;;;;;;;;;;;;;;;;;;4705560;28;20292;-66
2022/12/28 16:25:27;;;;;;;;;;;;;;;;;;4703503;28;20287;-66
2022/12/28 16:27:53;;;;;;;;;;;;;;;;;;4701645;28;20209;-62
2022/12/28 16:30:19;;;;;;;;;;;;;;;;;;4706574;28;20246;-65
2022/12/28 16:32:44;;;;;;;;;;;;;;;;;;4705954;28;20708;-64
2022/12/28 16:35:10;;;;;;;;;;;;;;;;;;4706807;28;20669;-64
2022/12/28 16:37:36;;;;;;;;;;;;;;;;;;4704941;28;20265;-63
2022/12/28 16:40:02;;;;;;;;;;;;;;;;;;4706600;28;20222;-65
2022/12/28 16:42:28;;;;;;;;;;;;;;;;;;4707491;28;20616;-64
2022/12/28 16:44:54;;;;;;;;;;;;;;;;;;4707095;28;20300;-65
2022/12/28 16:47:20;;;;;;;;;;;;;;;;;;4703087;28;20209;-64
2022/12/28 16:49:46;;;;;;;;;;;;;;;;;;4705328;28;20237;-66
2022/12/28 16:52:12;;;;;;;;;;;;;;;;;;4707733;28;20331;-65
2022/12/28 16:54:38;;;;;;;;;;;;;;;;;;4707426;28;20195;-66
2022/12/28 16:57:04;;;;;;;;;;;;;;;;;;4707498;28;20238;-65
2022/12/28 16:59:30;;;;;;;;;;;;;;;;;;4705838;28;20193;-64
2022/12/28 17:01:56;;;;;;;;;;;;;;;;;;4706252;28;20295;-66
2022/12/28 17:04:22;;;;;;;;;;;;;;;;;;4706672;28;20291;-66